UAKK METAR and TAF | Updated Today

UAKK METAR

Sary-Arka Airport

Observation time: 20 min. ago

UAKK 062000Z 07004MPS CAVOK M02/M05 Q1028 NOSIG RMK QFE723/0965

Need help? Read our tutorial on how to read METARs or read the parsed version below.

Sary-Arka Airport (UAKK) METAR

  • Weather conditions on Thu, 06 Oct 2022 20:00:00 +0000 (20 min. ago):
  • Present conditions: Dry
  • Clouds: Clear skies
  • Visibility: Greater than 10 km
  • Wind: 70 degrees at 4 knots
  • Temperature: -2 celsius
  • Dew point: -5 celsius
  • Pressure: 1028 millibars
  • Remarks: QFE723/0965


Useful to know...

UAKK TAF

Sary-Arka Airport

TAF UAKK 061703Z 0618/0718 VRB02MPS 9999 SCT030 BKN100 TX21/0709Z TNM04/0624Z TEMPO 0618/0702 3100 BR SCT011 TEMPO 0706/0712 18005MPS
Observation time: 3:17 hr. ago
Need help? Read our tutorial on how to read TAFs or read the parsed version below.

Parsed version of TAF for Sary-Arka Airport (UAKK)

  • From 06 October at 18:00 UTC, to day 07 of the month at 18:00 UTC
  • Clouds: Scattered at 914 meters; broken sky at 3048 meters
  • Visibility: Greater than 10 km
  • Wind: Variable at 2
  • Expected to arise temporarily, from 06 October at 18:00 UTC, to day 07 of the month at 02:00 UTC
  • Clouds: Scattered at 335 meters
  • Visibility: 3100 meters
  • Other: Mist
  • Expected to arise temporarily, from 07 October at 06:00 UTC, to day 07 of the month at 12:00 UTC
  • Wind: 180 degrees at 5

Airports near UAKK

No airports found within 100nm radius.